sensor_id;sensor_type;location;lat;lon;timestamp;temperature;humidity
70145;DHT22;57510;51.068;3.872;2022-07-23T00:01:39;16.80;91.80
70145;DHT22;57510;51.068;3.872;2022-07-23T00:04:06;16.80;91.80
70145;DHT22;57510;51.068;3.872;2022-07-23T00:06:32;16.80;91.70
70145;DHT22;57510;51.068;3.872;2022-07-23T00:08:58;16.80;91.60
70145;DHT22;57510;51.068;3.872;2022-07-23T00:11:26;16.80;91.50
70145;DHT22;57510;51.068;3.872;2022-07-23T00:13:52;16.80;91.60
70145;DHT22;57510;51.068;3.872;2022-07-23T00:16:18;16.80;91.50
70145;DHT22;57510;51.068;3.872;2022-07-23T00:18:45;16.80;91.40
70145;DHT22;57510;51.068;3.872;2022-07-23T00:21:10;16.70;91.40
70145;DHT22;57510;51.068;3.872;2022-07-23T00:23:37;16.70;91.50
70145;DHT22;57510;51.068;3.872;2022-07-23T00:26:03;16.70;91.50
70145;DHT22;57510;51.068;3.872;2022-07-23T00:28:29;16.70;91.40
70145;DHT22;57510;51.068;3.872;2022-07-23T00:30:56;16.60;91.50
70145;DHT22;57510;51.068;3.872;2022-07-23T00:33:22;16.50;91.50
70145;DHT22;57510;51.068;3.872;2022-07-23T00:35:47;16.50;91.40
70145;DHT22;57510;51.068;3.872;2022-07-23T00:38:13;16.60;91.40
70145;DHT22;57510;51.068;3.872;2022-07-23T00:40:40;16.50;91.50
70145;DHT22;57510;51.068;3.872;2022-07-23T00:43:06;16.50;91.40
70145;DHT22;57510;51.068;3.872;2022-07-23T00:45:32;16.30;91.40
70145;DHT22;57510;51.068;3.872;2022-07-23T00:47:58;16.40;91.50
70145;DHT22;57510;51.068;3.872;2022-07-23T00:50:25;16.40;91.50
70145;DHT22;57510;51.068;3.872;2022-07-23T00:52:50;16.30;91.60
70145;DHT22;57510;51.068;3.872;2022-07-23T00:55:17;16.30;91.60
70145;DHT22;57510;51.068;3.872;2022-07-23T00:57:43;16.30;91.50
70145;DHT22;57510;51.068;3.872;2022-07-23T01:00:13;16.30;91.50
70145;DHT22;57510;51.068;3.872;2022-07-23T01:02:39;16.30;91.50
70145;DHT22;57510;51.068;3.872;2022-07-23T01:05:07;16.30;91.40
70145;DHT22;57510;51.068;3.872;2022-07-23T01:07:34;16.30;91.40
70145;DHT22;57510;51.068;3.872;2022-07-23T01:09:59;16.20;91.40
70145;DHT22;57510;51.068;3.872;2022-07-23T01:12:28;16.20;91.40
70145;DHT22;57510;51.068;3.872;2022-07-23T01:14:58;16.20;91.40
70145;DHT22;57510;51.068;3.872;2022-07-23T01:17:25;16.10;91.40
70145;DHT22;57510;51.068;3.872;2022-07-23T01:19:51;16.10;91.40
70145;DHT22;57510;51.068;3.872;2022-07-23T01:22:19;16.00;91.50
70145;DHT22;57510;51.068;3.872;2022-07-23T01:24:45;15.80;91.60
70145;DHT22;57510;51.068;3.872;2022-07-23T01:27:12;15.70;91.70
70145;DHT22;57510;51.068;3.872;2022-07-23T01:29:38;15.70;91.70
70145;DHT22;57510;51.068;3.872;2022-07-23T01:32:05;15.80;91.50
70145;DHT22;57510;51.068;3.872;2022-07-23T01:34:31;15.80;91.30
70145;DHT22;57510;51.068;3.872;2022-07-23T01:36:56;15.80;91.20
70145;DHT22;57510;51.068;3.872;2022-07-23T01:39:22;15.80;91.20
70145;DHT22;57510;51.068;3.872;2022-07-23T01:41:48;15.80;91.20
70145;DHT22;57510;51.068;3.872;2022-07-23T01:44:14;15.80;91.20
70145;DHT22;57510;51.068;3.872;2022-07-23T01:46:39;15.70;91.20
70145;DHT22;57510;51.068;3.872;2022-07-23T01:49:05;15.70;91.10
70145;DHT22;57510;51.068;3.872;2022-07-23T01:51:31;15.70;91.10
70145;DHT22;57510;51.068;3.872;2022-07-23T01:53:56;15.60;91.20
70145;DHT22;57510;51.068;3.872;2022-07-23T01:56:22;15.60;91.30
70145;DHT22;57510;51.068;3.872;2022-07-23T01:58:48;15.60;91.30
70145;DHT22;57510;51.068;3.872;2022-07-23T02:01:14;15.50;91.20
70145;DHT22;57510;51.068;3.872;2022-07-23T02:03:40;15.50;91.20
70145;DHT22;57510;51.068;3.872;2022-07-23T02:06:05;15.50;91.30
70145;DHT22;57510;51.068;3.872;2022-07-23T02:08:31;15.40;91.20
70145;DHT22;57510;51.068;3.872;2022-07-23T02:10:57;15.50;91.20
70145;DHT22;57510;51.068;3.872;2022-07-23T02:13:22;15.40;91.10
70145;DHT22;57510;51.068;3.872;2022-07-23T02:15:48;15.40;91.20
70145;DHT22;57510;51.068;3.872;2022-07-23T02:18:14;15.40;91.30
70145;DHT22;57510;51.068;3.872;2022-07-23T02:20:41;15.40;91.20
70145;DHT22;57510;51.068;3.872;2022-07-23T02:23:09;15.40;91.30
70145;DHT22;57510;51.068;3.872;2022-07-23T02:25:35;15.30;91.20
70145;DHT22;57510;51.068;3.872;2022-07-23T02:28:01;15.30;91.10
70145;DHT22;57510;51.068;3.872;2022-07-23T02:30:27;15.00;91.40
70145;DHT22;57510;51.068;3.872;2022-07-23T02:32:53;15.00;91.60
70145;DHT22;57510;51.068;3.872;2022-07-23T02:35:19;15.00;91.70
70145;DHT22;57510;51.068;3.872;2022-07-23T02:37:45;15.00;91.80
70145;DHT22;57510;51.068;3.872;2022-07-23T02:40:11;15.10;91.80
70145;DHT22;57510;51.068;3.872;2022-07-23T02:42:37;15.10;91.90
70145;DHT22;57510;51.068;3.872;2022-07-23T02:45:03;15.10;91.70
70145;DHT22;57510;51.068;3.872;2022-07-23T02:47:29;15.00;91.50
70145;DHT22;57510;51.068;3.872;2022-07-23T02:49:57;14.90;91.80
70145;DHT22;57510;51.068;3.872;2022-07-23T02:52:23;14.90;91.80
70145;DHT22;57510;51.068;3.872;2022-07-23T02:54:48;15.00;91.70
70145;DHT22;57510;51.068;3.872;2022-07-23T02:57:14;15.00;91.60
70145;DHT22;57510;51.068;3.872;2022-07-23T02:59:40;15.10;91.50
70145;DHT22;57510;51.068;3.872;2022-07-23T03:02:06;15.00;91.30
70145;DHT22;57510;51.068;3.872;2022-07-23T03:04:32;14.90;91.60
70145;DHT22;57510;51.068;3.872;2022-07-23T03:06:57;15.00;91.60
70145;DHT22;57510;51.068;3.872;2022-07-23T03:09:23;14.90;91.70
70145;DHT22;57510;51.068;3.872;2022-07-23T03:11:49;15.00;91.70
70145;DHT22;57510;51.068;3.872;2022-07-23T03:14:14;14.90;91.70
70145;DHT22;57510;51.068;3.872;2022-07-23T03:16:41;14.90;91.60
70145;DHT22;57510;51.068;3.872;2022-07-23T03:19:07;14.90;91.50
70145;DHT22;57510;51.068;3.872;2022-07-23T03:21:33;14.90;91.50
70145;DHT22;57510;51.068;3.872;2022-07-23T03:24:00;14.90;91.40
70145;DHT22;57510;51.068;3.872;2022-07-23T03:26:25;14.80;91.30
70145;DHT22;57510;51.068;3.872;2022-07-23T03:28:51;14.80;91.20
70145;DHT22;57510;51.068;3.872;2022-07-23T03:31:17;14.70;91.10
70145;DHT22;57510;51.068;3.872;2022-07-23T03:33:44;14.70;91.10
70145;DHT22;57510;51.068;3.872;2022-07-23T03:36:09;14.50;91.20
70145;DHT22;57510;51.068;3.872;2022-07-23T03:38:35;14.50;91.50
70145;DHT22;57510;51.068;3.872;2022-07-23T03:41:01;14.50;91.60
70145;DHT22;57510;51.068;3.872;2022-07-23T03:43:26;14.50;91.60
70145;DHT22;57510;51.068;3.872;2022-07-23T03:45:52;14.50;91.70
70145;DHT22;57510;51.068;3.872;2022-07-23T03:48:18;14.50;91.60
70145;DHT22;57510;51.068;3.872;2022-07-23T03:50:43;14.50;92.10
70145;DHT22;57510;51.068;3.872;2022-07-23T03:53:09;14.50;92.00
70145;DHT22;57510;51.068;3.872;2022-07-23T03:55:35;14.50;92.10
70145;DHT22;57510;51.068;3.872;2022-07-23T03:58:01;14.50;91.90
70145;DHT22;57510;51.068;3.872;2022-07-23T04:00:26;14.60;91.80
70145;DHT22;57510;51.068;3.872;2022-07-23T04:02:52;14.60;91.60
70145;DHT22;57510;51.068;3.872;2022-07-23T04:05:18;14.60;91.50
70145;DHT22;57510;51.068;3.872;2022-07-23T04:07:44;14.60;91.60
70145;DHT22;57510;51.068;3.872;2022-07-23T04:10:09;14.70;91.70
70145;DHT22;57510;51.068;3.872;2022-07-23T04:12:35;14.60;91.80
70145;DHT22;57510;51.068;3.872;2022-07-23T04:15:01;14.60;92.00
70145;DHT22;57510;51.068;3.872;2022-07-23T04:17:27;14.60;92.10
70145;DHT22;57510;51.068;3.872;2022-07-23T04:19:53;14.60;91.90
70145;DHT22;57510;51.068;3.872;2022-07-23T04:22:19;14.60;91.80
70145;DHT22;57510;51.068;3.872;2022-07-23T04:24:45;14.60;91.80
70145;DHT22;57510;51.068;3.872;2022-07-23T04:27:10;14.70;91.80
70145;DHT22;57510;51.068;3.872;2022-07-23T04:29:36;14.70;91.80
70145;DHT22;57510;51.068;3.872;2022-07-23T04:32:03;14.70;91.80
70145;DHT22;57510;51.068;3.872;2022-07-23T04:34:28;14.80;91.80
70145;DHT22;57510;51.068;3.872;2022-07-23T04:36:54;14.80;91.70
70145;DHT22;57510;51.068;3.872;2022-07-23T04:39:22;14.90;91.70
70145;DHT22;57510;51.068;3.872;2022-07-23T04:41:48;15.10;91.70
70145;DHT22;57510;51.068;3.872;2022-07-23T04:44:14;15.20;91.70
70145;DHT22;57510;51.068;3.872;2022-07-23T04:46:40;15.20;91.60
70145;DHT22;57510;51.068;3.872;2022-07-23T04:49:05;15.20;91.70
70145;DHT22;57510;51.068;3.872;2022-07-23T04:51:31;15.20;91.90
70145;DHT22;57510;51.068;3.872;2022-07-23T04:53:57;15.30;91.90
70145;DHT22;57510;51.068;3.872;2022-07-23T04:56:22;15.40;91.90
70145;DHT22;57510;51.068;3.872;2022-07-23T04:58:48;15.50;91.80
70145;DHT22;57510;51.068;3.872;2022-07-23T05:01:14;15.50;91.80
70145;DHT22;57510;51.068;3.872;2022-07-23T05:03:40;15.60;91.90
70145;DHT22;57510;51.068;3.872;2022-07-23T05:06:06;15.70;91.90
70145;DHT22;57510;51.068;3.872;2022-07-23T05:08:32;15.80;92.00
70145;DHT22;57510;51.068;3.872;2022-07-23T05:10:58;15.80;92.00
70145;DHT22;57510;51.068;3.872;2022-07-23T05:13:24;15.80;91.90
70145;DHT22;57510;51.068;3.872;2022-07-23T05:15:50;15.80;92.00
70145;DHT22;57510;51.068;3.872;2022-07-23T05:18:15;15.90;91.90
70145;DHT22;57510;51.068;3.872;2022-07-23T05:20:44;16.00;91.90
70145;DHT22;57510;51.068;3.872;2022-07-23T05:23:10;16.00;91.90
70145;DHT22;57510;51.068;3.872;2022-07-23T05:25:36;16.10;92.00
70145;DHT22;57510;51.068;3.872;2022-07-23T05:28:01;16.10;92.10
70145;DHT22;57510;51.068;3.872;2022-07-23T05:30:27;16.20;92.30
70145;DHT22;57510;51.068;3.872;2022-07-23T05:32:52;16.20;92.40
70145;DHT22;57510;51.068;3.872;2022-07-23T05:35:18;16.20;92.50
70145;DHT22;57510;51.068;3.872;2022-07-23T05:37:44;16.20;92.60
70145;DHT22;57510;51.068;3.872;2022-07-23T05:40:10;16.20;92.60
70145;DHT22;57510;51.068;3.872;2022-07-23T05:42:40;16.30;92.80
70145;DHT22;57510;51.068;3.872;2022-07-23T05:45:08;16.30;92.80
70145;DHT22;57510;51.068;3.872;2022-07-23T05:48:00;16.40;92.90
70145;DHT22;57510;51.068;3.872;2022-07-23T05:50:26;16.40;93.00
70145;DHT22;57510;51.068;3.872;2022-07-23T05:52:52;16.50;93.00
70145;DHT22;57510;51.068;3.872;2022-07-23T05:55:17;16.60;92.80
70145;DHT22;57510;51.068;3.872;2022-07-23T05:57:43;16.70;92.80
70145;DHT22;57510;51.068;3.872;2022-07-23T06:00:10;16.80;92.70
70145;DHT22;57510;51.068;3.872;2022-07-23T06:02:37;16.80;92.80
70145;DHT22;57510;51.068;3.872;2022-07-23T06:05:03;16.90;92.80
70145;DHT22;57510;51.068;3.872;2022-07-23T06:07:29;17.00;92.70
70145;DHT22;57510;51.068;3.872;2022-07-23T06:09:55;17.00;92.40
70145;DHT22;57510;51.068;3.872;2022-07-23T06:12:20;17.10;92.50
70145;DHT22;57510;51.068;3.872;2022-07-23T06:14:47;17.30;92.30
70145;DHT22;57510;51.068;3.872;2022-07-23T06:17:15;17.30;92.30
70145;DHT22;57510;51.068;3.872;2022-07-23T06:19:40;17.40;92.20
70145;DHT22;57510;51.068;3.872;2022-07-23T06:22:06;17.50;92.10
70145;DHT22;57510;51.068;3.872;2022-07-23T06:24:32;17.50;92.00
70145;DHT22;57510;51.068;3.872;2022-07-23T06:26:58;17.60;92.00
70145;DHT22;57510;51.068;3.872;2022-07-23T06:29:25;17.70;92.00
70145;DHT22;57510;51.068;3.872;2022-07-23T06:31:52;17.90;91.90
70145;DHT22;57510;51.068;3.872;2022-07-23T06:34:17;18.00;91.90
70145;DHT22;57510;51.068;3.872;2022-07-23T06:36:43;18.10;91.70
70145;DHT22;57510;51.068;3.872;2022-07-23T06:39:09;18.20;91.70
70145;DHT22;57510;51.068;3.872;2022-07-23T06:41:35;18.30;91.30
70145;DHT22;57510;51.068;3.872;2022-07-23T06:44:01;18.40;91.00
70145;DHT22;57510;51.068;3.872;2022-07-23T06:46:26;18.50;90.80
70145;DHT22;57510;51.068;3.872;2022-07-23T06:48:52;18.50;90.40
70145;DHT22;57510;51.068;3.872;2022-07-23T06:51:18;18.80;90.20
70145;DHT22;57510;51.068;3.872;2022-07-23T06:53:44;19.10;90.00
70145;DHT22;57510;51.068;3.872;2022-07-23T06:56:09;19.40;88.90
70145;DHT22;57510;51.068;3.872;2022-07-23T06:58:35;19.50;87.80
70145;DHT22;57510;51.068;3.872;2022-07-23T07:01:01;19.70;87.30
70145;DHT22;57510;51.068;3.872;2022-07-23T07:03:27;19.80;87.00
70145;DHT22;57510;51.068;3.872;2022-07-23T07:05:53;19.70;86.80
70145;DHT22;57510;51.068;3.872;2022-07-23T07:08:19;19.60;87.70
70145;DHT22;57510;51.068;3.872;2022-07-23T07:10:46;19.50;87.80
70145;DHT22;57510;51.068;3.872;2022-07-23T07:13:12;19.40;89.50
70145;DHT22;57510;51.068;3.872;2022-07-23T07:15:38;19.20;90.00
70145;DHT22;57510;51.068;3.872;2022-07-23T07:18:05;19.30;89.70
70145;DHT22;57510;51.068;3.872;2022-07-23T07:20:30;19.30;89.50
70145;DHT22;57510;51.068;3.872;2022-07-23T07:22:56;19.10;89.40
70145;DHT22;57510;51.068;3.872;2022-07-23T07:25:22;19.20;89.20
70145;DHT22;57510;51.068;3.872;2022-07-23T07:27:48;19.30;88.70
70145;DHT22;57510;51.068;3.872;2022-07-23T07:30:15;19.20;89.10
70145;DHT22;57510;51.068;3.872;2022-07-23T07:32:41;19.10;89.80
70145;DHT22;57510;51.068;3.872;2022-07-23T07:35:07;19.10;89.70
70145;DHT22;57510;51.068;3.872;2022-07-23T07:37:33;19.20;88.40
70145;DHT22;57510;51.068;3.872;2022-07-23T07:39:59;19.30;88.30
70145;DHT22;57510;51.068;3.872;2022-07-23T07:42:25;19.50;89.10
70145;DHT22;57510;51.068;3.872;2022-07-23T07:44:51;19.60;88.60
70145;DHT22;57510;51.068;3.872;2022-07-23T07:47:18;19.40;88.40
70145;DHT22;57510;51.068;3.872;2022-07-23T07:49:43;19.70;88.40
70145;DHT22;57510;51.068;3.872;2022-07-23T07:52:09;19.80;87.60
70145;DHT22;57510;51.068;3.872;2022-07-23T07:54:35;19.90;86.80
70145;DHT22;57510;51.068;3.872;2022-07-23T07:57:01;20.00;86.40
70145;DHT22;57510;51.068;3.872;2022-07-23T07:59:27;20.10;88.50
70145;DHT22;57510;51.068;3.872;2022-07-23T08:01:53;20.10;88.40
70145;DHT22;57510;51.068;3.872;2022-07-23T08:04:20;20.30;87.30
70145;DHT22;57510;51.068;3.872;2022-07-23T08:06:46;20.60;85.90
70145;DHT22;57510;51.068;3.872;2022-07-23T08:09:12;20.80;85.90
70145;DHT22;57510;51.068;3.872;2022-07-23T08:11:37;21.00;83.60
70145;DHT22;57510;51.068;3.872;2022-07-23T08:14:03;21.30;83.80
70145;DHT22;57510;51.068;3.872;2022-07-23T08:16:29;21.40;82.20
70145;DHT22;57510;51.068;3.872;2022-07-23T08:18:56;21.50;81.90
70145;DHT22;57510;51.068;3.872;2022-07-23T08:21:22;21.80;81.30
70145;DHT22;57510;51.068;3.872;2022-07-23T08:23:48;22.00;79.80
70145;DHT22;57510;51.068;3.872;2022-07-23T08:26:14;22.10;78.70
70145;DHT22;57510;51.068;3.872;2022-07-23T08:28:40;22.20;78.00
70145;DHT22;57510;51.068;3.872;2022-07-23T08:31:06;22.10;77.60
70145;DHT22;57510;51.068;3.872;2022-07-23T08:33:32;22.30;74.70
70145;DHT22;57510;51.068;3.872;2022-07-23T08:35:58;22.40;75.80
70145;DHT22;57510;51.068;3.872;2022-07-23T08:38:24;23.00;75.00
70145;DHT22;57510;51.068;3.872;2022-07-23T08:40:55;23.00;73.20
70145;DHT22;57510;51.068;3.872;2022-07-23T08:43:30;23.10;74.80
70145;DHT22;57510;51.068;3.872;2022-07-23T08:45:58;22.90;74.60
70145;DHT22;57510;51.068;3.872;2022-07-23T08:48:27;23.00;76.60
70145;DHT22;57510;51.068;3.872;2022-07-23T08:50:56;23.00;72.70
70145;DHT22;57510;51.068;3.872;2022-07-23T08:53:23;23.10;71.40
70145;DHT22;57510;51.068;3.872;2022-07-23T08:55:54;23.70;70.20
70145;DHT22;57510;51.068;3.872;2022-07-23T08:58:21;23.30;71.50
70145;DHT22;57510;51.068;3.872;2022-07-23T09:00:47;23.70;70.70
70145;DHT22;57510;51.068;3.872;2022-07-23T09:03:18;24.20;70.30
70145;DHT22;57510;51.068;3.872;2022-07-23T09:05:48;24.40;70.10
70145;DHT22;57510;51.068;3.872;2022-07-23T09:08:19;24.50;69.20
70145;DHT22;57510;51.068;3.872;2022-07-23T09:15:53;23.80;66.90
70145;DHT22;57510;51.068;3.872;2022-07-23T09:18:19;23.40;68.50
70145;DHT22;57510;51.068;3.872;2022-07-23T09:21:08;23.20;69.30
70145;DHT22;57510;51.068;3.872;2022-07-23T09:23:48;23.10;69.10
70145;DHT22;57510;51.068;3.872;2022-07-23T09:29:07;23.30;69.30
70145;DHT22;57510;51.068;3.872;2022-07-23T09:34:27;23.20;70.00
70145;DHT22;57510;51.068;3.872;2022-07-23T09:36:57;23.50;69.00
70145;DHT22;57510;51.068;3.872;2022-07-23T09:39:31;23.40;69.00
70145;DHT22;57510;51.068;3.872;2022-07-23T09:41:58;23.80;69.70
70145;DHT22;57510;51.068;3.872;2022-07-23T09:44:41;24.40;69.00
70145;DHT22;57510;51.068;3.872;2022-07-23T09:47:07;24.60;65.00
70145;DHT22;57510;51.068;3.872;2022-07-23T09:49:33;24.50;66.00
70145;DHT22;57510;51.068;3.872;2022-07-23T09:52:01;24.50;65.90
70145;DHT22;57510;51.068;3.872;2022-07-23T09:54:40;24.40;66.10
70145;DHT22;57510;51.068;3.872;2022-07-23T09:57:11;24.10;66.00
70145;DHT22;57510;51.068;3.872;2022-07-23T09:59:41;23.90;67.60
70145;DHT22;57510;51.068;3.872;2022-07-23T10:02:13;24.10;67.40
70145;DHT22;57510;51.068;3.872;2022-07-23T10:04:40;24.20;66.00
70145;DHT22;57510;51.068;3.872;2022-07-23T10:07:08;24.00;67.00
70145;DHT22;57510;51.068;3.872;2022-07-23T10:09:40;24.20;65.90
70145;DHT22;57510;51.068;3.872;2022-07-23T10:12:12;24.60;66.00
70145;DHT22;57510;51.068;3.872;2022-07-23T10:14:57;24.90;64.00
70145;DHT22;57510;51.068;3.872;2022-07-23T10:17:23;25.00;64.20
70145;DHT22;57510;51.068;3.872;2022-07-23T10:19:50;25.20;62.80
70145;DHT22;57510;51.068;3.872;2022-07-23T10:22:33;24.60;63.70
70145;DHT22;57510;51.068;3.872;2022-07-23T10:28:08;24.00;64.80
70145;DHT22;57510;51.068;3.872;2022-07-23T10:36:24;23.80;64.30
70145;DHT22;57510;51.068;3.872;2022-07-23T10:39:08;23.80;62.50
70145;DHT22;57510;51.068;3.872;2022-07-23T10:41:41;23.90;64.10
70145;DHT22;57510;51.068;3.872;2022-07-23T10:44:15;23.80;64.50
70145;DHT22;57510;51.068;3.872;2022-07-23T10:46:56;23.70;65.30
70145;DHT22;57510;51.068;3.872;2022-07-23T10:49:40;23.70;65.80
70145;DHT22;57510;51.068;3.872;2022-07-23T10:57:48;23.80;64.30
70145;DHT22;57510;51.068;3.872;2022-07-23T11:02:49;23.80;64.50
70145;DHT22;57510;51.068;3.872;2022-07-23T11:05:21;23.80;64.60
70145;DHT22;57510;51.068;3.872;2022-07-23T11:26:53;23.90;64.90
70145;DHT22;57510;51.068;3.872;2022-07-23T11:37:01;24.10;63.10
70145;DHT22;57510;51.068;3.872;2022-07-23T11:39:28;24.00;64.30
70145;DHT22;57510;51.068;3.872;2022-07-23T11:41:55;24.10;63.50
70145;DHT22;57510;51.068;3.872;2022-07-23T11:44:29;24.30;62.60
70145;DHT22;57510;51.068;3.872;2022-07-23T11:47:05;24.30;61.20
70145;DHT22;57510;51.068;3.872;2022-07-23T11:49:32;24.40;64.20
70145;DHT22;57510;51.068;3.872;2022-07-23T11:52:12;24.40;66.40
70145;DHT22;57510;51.068;3.872;2022-07-23T11:57:13;24.60;61.30
70145;DHT22;57510;51.068;3.872;2022-07-23T11:59:39;24.60;62.50
70145;DHT22;57510;51.068;3.872;2022-07-23T12:02:09;24.80;61.70
70145;DHT22;57510;51.068;3.872;2022-07-23T12:04:42;24.80;62.10
70145;DHT22;57510;51.068;3.872;2022-07-23T12:09:57;24.70;61.60
70145;DHT22;57510;51.068;3.872;2022-07-23T12:12:23;24.50;63.30
70145;DHT22;57510;51.068;3.872;2022-07-23T12:17:16;24.50;61.80
70145;DHT22;57510;51.068;3.872;2022-07-23T12:19:42;24.60;62.00
70145;DHT22;57510;51.068;3.872;2022-07-23T12:22:09;24.60;62.40
70145;DHT22;57510;51.068;3.872;2022-07-23T12:27:23;25.10;62.10
70145;DHT22;57510;51.068;3.872;2022-07-23T12:29:49;25.20;62.50
70145;DHT22;57510;51.068;3.872;2022-07-23T12:32:24;25.40;62.10
70145;DHT22;57510;51.068;3.872;2022-07-23T12:35:11;25.30;60.80
70145;DHT22;57510;51.068;3.872;2022-07-23T12:37:38;25.40;61.10
70145;DHT22;57510;51.068;3.872;2022-07-23T12:42:51;25.50;62.50
70145;DHT22;57510;51.068;3.872;2022-07-23T12:45:17;25.70;62.30
70145;DHT22;57510;51.068;3.872;2022-07-23T12:48:03;25.80;62.20
70145;DHT22;57510;51.068;3.872;2022-07-23T12:50:37;26.00;62.00
70145;DHT22;57510;51.068;3.872;2022-07-23T12:53:04;25.90;61.50
70145;DHT22;57510;51.068;3.872;2022-07-23T12:55:30;25.90;59.80
70145;DHT22;57510;51.068;3.872;2022-07-23T12:58:11;26.20;59.70
70145;DHT22;57510;51.068;3.872;2022-07-23T13:00:53;26.40;61.50
70145;DHT22;57510;51.068;3.872;2022-07-23T13:03:36;26.40;61.80
70145;DHT22;57510;51.068;3.872;2022-07-23T13:06:05;26.50;63.00
70145;DHT22;57510;51.068;3.872;2022-07-23T13:08:33;26.40;60.90
70145;DHT22;57510;51.068;3.872;2022-07-23T13:10:59;26.30;60.30
70145;DHT22;57510;51.068;3.872;2022-07-23T13:13:27;26.50;60.70
70145;DHT22;57510;51.068;3.872;2022-07-23T13:15:54;26.70;59.50
70145;DHT22;57510;51.068;3.872;2022-07-23T13:18:21;26.80;62.70
70145;DHT22;57510;51.068;3.872;2022-07-23T13:20:47;27.10;62.40
70145;DHT22;57510;51.068;3.872;2022-07-23T13:23:14;27.00;60.90
70145;DHT22;57510;51.068;3.872;2022-07-23T13:25:41;27.10;61.30
70145;DHT22;57510;51.068;3.872;2022-07-23T13:28:09;27.30;59.00
70145;DHT22;57510;51.068;3.872;2022-07-23T13:30:35;27.40;59.50
70145;DHT22;57510;51.068;3.872;2022-07-23T13:33:03;27.40;57.40
70145;DHT22;57510;51.068;3.872;2022-07-23T13:35:29;27.60;56.60
70145;DHT22;57510;51.068;3.872;2022-07-23T13:37:55;27.90;57.20
70145;DHT22;57510;51.068;3.872;2022-07-23T13:40:21;27.70;56.80
70145;DHT22;57510;51.068;3.872;2022-07-23T13:42:48;27.70;56.00
70145;DHT22;57510;51.068;3.872;2022-07-23T13:45:14;27.80;54.50
70145;DHT22;57510;51.068;3.872;2022-07-23T13:47:40;27.20;55.80
70145;DHT22;57510;51.068;3.872;2022-07-23T13:50:06;27.10;55.80
70145;DHT22;57510;51.068;3.872;2022-07-23T13:52:33;27.20;56.20
70145;DHT22;57510;51.068;3.872;2022-07-23T13:55:01;27.30;56.10
70145;DHT22;57510;51.068;3.872;2022-07-23T13:57:26;27.40;56.90
70145;DHT22;57510;51.068;3.872;2022-07-23T13:59:53;27.80;54.60
70145;DHT22;57510;51.068;3.872;2022-07-23T14:02:19;27.80;55.40
70145;DHT22;57510;51.068;3.872;2022-07-23T14:04:44;28.30;55.40
70145;DHT22;57510;51.068;3.872;2022-07-23T14:07:11;28.50;54.10
70145;DHT22;57510;51.068;3.872;2022-07-23T14:09:37;28.30;54.60
70145;DHT22;57510;51.068;3.872;2022-07-23T14:12:04;28.70;54.80
70145;DHT22;57510;51.068;3.872;2022-07-23T14:14:30;29.20;54.10
70145;DHT22;57510;51.068;3.872;2022-07-23T14:16:56;29.00;54.20
70145;DHT22;57510;51.068;3.872;2022-07-23T14:19:23;29.10;51.60
70145;DHT22;57510;51.068;3.872;2022-07-23T14:21:49;28.60;51.70
70145;DHT22;57510;51.068;3.872;2022-07-23T14:24:15;28.40;53.30
70145;DHT22;57510;51.068;3.872;2022-07-23T14:26:41;28.80;52.70
70145;DHT22;57510;51.068;3.872;2022-07-23T14:29:07;29.30;52.70
70145;DHT22;57510;51.068;3.872;2022-07-23T14:31:33;29.70;51.00
70145;DHT22;57510;51.068;3.872;2022-07-23T14:34:00;29.70;50.00
70145;DHT22;57510;51.068;3.872;2022-07-23T14:36:25;29.40;50.80
70145;DHT22;57510;51.068;3.872;2022-07-23T14:38:52;29.10;49.80
70145;DHT22;57510;51.068;3.872;2022-07-23T14:41:18;29.90;50.30
70145;DHT22;57510;51.068;3.872;2022-07-23T14:43:43;30.50;48.70
70145;DHT22;57510;51.068;3.872;2022-07-23T14:46:10;32.10;47.10
70145;DHT22;57510;51.068;3.872;2022-07-23T14:48:37;33.60;44.30
70145;DHT22;57510;51.068;3.872;2022-07-23T14:51:05;35.20;42.20
70145;DHT22;57510;51.068;3.872;2022-07-23T14:53:34;37.00;40.20
70145;DHT22;57510;51.068;3.872;2022-07-23T14:55:59;38.10;39.20
70145;DHT22;57510;51.068;3.872;2022-07-23T14:58:25;38.40;36.80
70145;DHT22;57510;51.068;3.872;2022-07-23T15:00:51;38.50;37.80
70145;DHT22;57510;51.068;3.872;2022-07-23T15:03:17;40.00;35.70
70145;DHT22;57510;51.068;3.872;2022-07-23T15:05:43;39.90;34.80
70145;DHT22;57510;51.068;3.872;2022-07-23T15:08:08;41.60;34.40
70145;DHT22;57510;51.068;3.872;2022-07-23T15:10:35;42.50;33.70
70145;DHT22;57510;51.068;3.872;2022-07-23T15:13:01;43.30;33.60
70145;DHT22;57510;51.068;3.872;2022-07-23T15:15:27;44.20;32.00
70145;DHT22;57510;51.068;3.872;2022-07-23T15:17:53;43.90;32.40
70145;DHT22;57510;51.068;3.872;2022-07-23T15:20:19;43.30;31.90
70145;DHT22;57510;51.068;3.872;2022-07-23T15:22:44;43.00;32.20
70145;DHT22;57510;51.068;3.872;2022-07-23T15:25:13;43.00;31.40
70145;DHT22;57510;51.068;3.872;2022-07-23T15:27:39;41.80;32.20
70145;DHT22;57510;51.068;3.872;2022-07-23T15:30:06;41.70;32.20
70145;DHT22;57510;51.068;3.872;2022-07-23T15:32:32;42.10;32.00
70145;DHT22;57510;51.068;3.872;2022-07-23T15:34:58;42.80;31.90
70145;DHT22;57510;51.068;3.872;2022-07-23T15:37:24;43.20;31.50
70145;DHT22;57510;51.068;3.872;2022-07-23T15:39:51;44.70;31.20
70145;DHT22;57510;51.068;3.872;2022-07-23T15:42:16;44.90;31.00
70145;DHT22;57510;51.068;3.872;2022-07-23T15:44:43;43.80;31.50
70145;DHT22;57510;51.068;3.872;2022-07-23T15:47:16;42.00;32.90
70145;DHT22;57510;51.068;3.872;2022-07-23T15:49:42;41.40;33.20
70145;DHT22;57510;51.068;3.872;2022-07-23T15:52:08;41.30;33.10
70145;DHT22;57510;51.068;3.872;2022-07-23T15:54:39;42.20;32.20
70145;DHT22;57510;51.068;3.872;2022-07-23T15:57:05;43.70;31.30
70145;DHT22;57510;51.068;3.872;2022-07-23T15:59:31;44.50;31.30
70145;DHT22;57510;51.068;3.872;2022-07-23T16:01:57;44.90;30.30
70145;DHT22;57510;51.068;3.872;2022-07-23T16:04:24;46.30;30.00
70145;DHT22;57510;51.068;3.872;2022-07-23T16:06:49;45.60;29.80
70145;DHT22;57510;51.068;3.872;2022-07-23T16:09:15;43.30;30.40
70145;DHT22;57510;51.068;3.872;2022-07-23T16:11:41;41.40;32.90
70145;DHT22;57510;51.068;3.872;2022-07-23T16:14:07;43.20;31.00
70145;DHT22;57510;51.068;3.872;2022-07-23T16:16:34;43.00;31.20
70145;DHT22;57510;51.068;3.872;2022-07-23T16:19:00;44.10;30.90
70145;DHT22;57510;51.068;3.872;2022-07-23T16:21:27;45.60;29.90
70145;DHT22;57510;51.068;3.872;2022-07-23T16:23:53;46.30;29.50
70145;DHT22;57510;51.068;3.872;2022-07-23T16:26:19;46.50;29.40
70145;DHT22;57510;51.068;3.872;2022-07-23T16:28:46;46.90;29.60
70145;DHT22;57510;51.068;3.872;2022-07-23T16:31:15;45.00;29.80
70145;DHT22;57510;51.068;3.872;2022-07-23T16:33:41;43.60;30.60
70145;DHT22;57510;51.068;3.872;2022-07-23T16:36:07;41.70;31.70
70145;DHT22;57510;51.068;3.872;2022-07-23T16:38:34;40.80;33.00